sensor_id;sensor_type;location;lat;lon;timestamp;P1;durP1;ratioP1;P2;durP2;ratioP2
75746;SDS011;64363;52.198;21.020;2023-02-18T00:00:18;11.20;;;3.20;;
75746;SDS011;64363;52.198;21.020;2023-02-18T00:03:06;6.20;;;2.55;;
75746;SDS011;64363;52.198;21.020;2023-02-18T00:05:31;7.75;;;2.65;;
75746;SDS011;64363;52.198;21.020;2023-02-18T00:07:57;7.50;;;2.28;;
75746;SDS011;64363;52.198;21.020;2023-02-18T00:10:23;11.43;;;2.63;;
75746;SDS011;64363;52.198;21.020;2023-02-18T00:12:48;8.65;;;2.47;;
75746;SDS011;64363;52.198;21.020;2023-02-18T00:15:14;6.55;;;1.75;;
75746;SDS011;64363;52.198;21.020;2023-02-18T00:17:40;8.52;;;1.95;;
75746;SDS011;64363;52.198;21.020;2023-02-18T00:20:06;14.90;;;2.85;;
75746;SDS011;64363;52.198;21.020;2023-02-18T00:22:32;15.20;;;2.60;;
75746;SDS011;64363;52.198;21.020;2023-02-18T00:24:57;8.73;;;2.15;;
75746;SDS011;64363;52.198;21.020;2023-02-18T00:27:23;12.38;;;2.90;;
75746;SDS011;64363;52.198;21.020;2023-02-18T00:29:49;12.85;;;2.03;;
75746;SDS011;64363;52.198;21.020;2023-02-18T00:32:14;11.05;;;2.88;;
75746;SDS011;64363;52.198;21.020;2023-02-18T00:34:40;9.85;;;2.20;;
75746;SDS011;64363;52.198;21.020;2023-02-18T00:37:06;7.22;;;2.47;;
75746;SDS011;64363;52.198;21.020;2023-02-18T00:39:32;10.05;;;2.47;;
75746;SDS011;64363;52.198;21.020;2023-02-18T00:41:57;12.38;;;2.85;;
75746;SDS011;64363;52.198;21.020;2023-02-18T00:44:23;7.22;;;2.22;;
75746;SDS011;64363;52.198;21.020;2023-02-18T00:46:49;11.95;;;3.55;;
75746;SDS011;64363;52.198;21.020;2023-02-18T00:49:15;20.60;;;2.80;;
75746;SDS011;64363;52.198;21.020;2023-02-18T00:51:41;16.15;;;2.70;;
75746;SDS011;64363;52.198;21.020;2023-02-18T00:54:08;13.32;;;2.95;;
75746;SDS011;64363;52.198;21.020;2023-02-18T00:56:34;16.83;;;2.90;;
75746;SDS011;64363;52.198;21.020;2023-02-18T00:59:00;8.65;;;2.30;;
75746;SDS011;64363;52.198;21.020;2023-02-18T01:01:26;10.95;;;2.47;;
75746;SDS011;64363;52.198;21.020;2023-02-18T01:03:52;13.43;;;2.75;;
75746;SDS011;64363;52.198;21.020;2023-02-18T01:06:18;13.02;;;2.42;;
75746;SDS011;64363;52.198;21.020;2023-02-18T01:08:44;15.45;;;2.63;;
75746;SDS011;64363;52.198;21.020;2023-02-18T01:11:10;10.00;;;2.35;;
75746;SDS011;64363;52.198;21.020;2023-02-18T01:13:37;18.00;;;3.15;;
75746;SDS011;64363;52.198;21.020;2023-02-18T01:16:04;15.30;;;2.63;;
75746;SDS011;64363;52.198;21.020;2023-02-18T01:18:30;12.35;;;2.40;;
75746;SDS011;64363;52.198;21.020;2023-02-18T01:20:56;9.95;;;2.00;;
75746;SDS011;64363;52.198;21.020;2023-02-18T01:23:22;8.98;;;2.65;;
75746;SDS011;64363;52.198;21.020;2023-02-18T01:25:48;11.63;;;2.55;;
75746;SDS011;64363;52.198;21.020;2023-02-18T01:28:14;6.63;;;2.08;;
75746;SDS011;64363;52.198;21.020;2023-02-18T01:30:40;8.23;;;2.20;;
75746;SDS011;64363;52.198;21.020;2023-02-18T01:33:06;10.43;;;2.10;;
75746;SDS011;64363;52.198;21.020;2023-02-18T01:35:32;11.07;;;2.45;;
75746;SDS011;64363;52.198;21.020;2023-02-18T01:37:58;9.82;;;2.35;;
75746;SDS011;64363;52.198;21.020;2023-02-18T01:40:25;7.50;;;2.78;;
75746;SDS011;64363;52.198;21.020;2023-02-18T01:42:53;9.25;;;2.22;;
75746;SDS011;64363;52.198;21.020;2023-02-18T01:50:43;10.27;;;2.35;;
75746;SDS011;64363;52.198;21.020;2023-02-18T01:53:16;9.88;;;2.35;;
75746;SDS011;64363;52.198;21.020;2023-02-18T01:55:46;13.02;;;2.70;;
75746;SDS011;64363;52.198;21.020;2023-02-18T01:58:14;10.25;;;2.90;;
75746;SDS011;64363;52.198;21.020;2023-02-18T02:00:40;10.70;;;2.63;;
75746;SDS011;64363;52.198;21.020;2023-02-18T02:03:06;11.93;;;2.10;;
75746;SDS011;64363;52.198;21.020;2023-02-18T02:05:32;13.00;;;3.10;;
75746;SDS011;64363;52.198;21.020;2023-02-18T02:07:58;17.20;;;2.95;;
75746;SDS011;64363;52.198;21.020;2023-02-18T02:10:28;21.65;;;3.08;;
75746;SDS011;64363;52.198;21.020;2023-02-18T02:17:06;12.68;;;2.40;;
75746;SDS011;64363;52.198;21.020;2023-02-18T02:22:19;8.48;;;1.98;;
75746;SDS011;64363;52.198;21.020;2023-02-18T02:31:02;21.52;;;3.08;;
75746;SDS011;64363;52.198;21.020;2023-02-18T02:33:43;13.85;;;2.72;;
75746;SDS011;64363;52.198;21.020;2023-02-18T02:36:13;11.73;;;2.83;;
75746;SDS011;64363;52.198;21.020;2023-02-18T02:38:50;16.95;;;2.58;;
75746;SDS011;64363;52.198;21.020;2023-02-18T02:41:41;14.55;;;2.65;;
75746;SDS011;64363;52.198;21.020;2023-02-18T02:44:19;27.23;;;3.20;;
75746;SDS011;64363;52.198;21.020;2023-02-18T02:46:50;12.02;;;3.08;;
75746;SDS011;64363;52.198;21.020;2023-02-18T02:49:27;11.85;;;2.90;;
75746;SDS011;64363;52.198;21.020;2023-02-18T02:52:12;12.20;;;2.72;;
75746;SDS011;64363;52.198;21.020;2023-02-18T02:54:48;15.43;;;2.80;;
75746;SDS011;64363;52.198;21.020;2023-02-18T02:59:44;20.92;;;3.80;;
75746;SDS011;64363;52.198;21.020;2023-02-18T03:19:00;16.77;;;3.33;;
75746;SDS011;64363;52.198;21.020;2023-02-18T03:21:28;14.85;;;3.53;;
75746;SDS011;64363;52.198;21.020;2023-02-18T03:24:09;13.30;;;3.15;;
75746;SDS011;64363;52.198;21.020;2023-02-18T03:26:40;8.07;;;2.88;;
75746;SDS011;64363;52.198;21.020;2023-02-18T03:29:11;10.32;;;2.33;;
75746;SDS011;64363;52.198;21.020;2023-02-18T03:31:40;12.23;;;3.35;;
75746;SDS011;64363;52.198;21.020;2023-02-18T03:34:11;14.90;;;2.92;;
75746;SDS011;64363;52.198;21.020;2023-02-18T03:36:41;16.30;;;3.72;;
75746;SDS011;64363;52.198;21.020;2023-02-18T03:39:09;14.60;;;3.05;;
75746;SDS011;64363;52.198;21.020;2023-02-18T03:41:39;8.68;;;2.50;;
75746;SDS011;64363;52.198;21.020;2023-02-18T03:44:06;11.30;;;2.92;;
75746;SDS011;64363;52.198;21.020;2023-02-18T03:46:32;11.63;;;2.58;;
75746;SDS011;64363;52.198;21.020;2023-02-18T03:49:00;12.20;;;3.75;;
75746;SDS011;64363;52.198;21.020;2023-02-18T03:51:25;21.00;;;3.33;;
75746;SDS011;64363;52.198;21.020;2023-02-18T03:53:51;9.60;;;2.50;;
75746;SDS011;64363;52.198;21.020;2023-02-18T03:56:17;10.40;;;2.35;;
75746;SDS011;64363;52.198;21.020;2023-02-18T03:58:44;13.25;;;2.90;;
75746;SDS011;64363;52.198;21.020;2023-02-18T04:01:09;16.27;;;3.28;;
75746;SDS011;64363;52.198;21.020;2023-02-18T04:03:35;11.60;;;2.50;;
75746;SDS011;64363;52.198;21.020;2023-02-18T04:06:01;9.35;;;2.53;;
75746;SDS011;64363;52.198;21.020;2023-02-18T04:08:27;20.42;;;3.28;;
75746;SDS011;64363;52.198;21.020;2023-02-18T04:10:53;11.60;;;2.78;;
75746;SDS011;64363;52.198;21.020;2023-02-18T04:13:19;15.95;;;3.67;;
75746;SDS011;64363;52.198;21.020;2023-02-18T04:15:44;12.80;;;2.95;;
75746;SDS011;64363;52.198;21.020;2023-02-18T04:18:10;17.52;;;3.03;;
75746;SDS011;64363;52.198;21.020;2023-02-18T04:20:36;13.35;;;2.58;;
75746;SDS011;64363;52.198;21.020;2023-02-18T04:23:03;14.32;;;2.55;;
75746;SDS011;64363;52.198;21.020;2023-02-18T04:25:29;11.55;;;3.08;;
75746;SDS011;64363;52.198;21.020;2023-02-18T04:27:55;9.70;;;2.95;;
75746;SDS011;64363;52.198;21.020;2023-02-18T04:30:20;11.70;;;3.45;;
75746;SDS011;64363;52.198;21.020;2023-02-18T04:32:46;15.15;;;3.13;;
75746;SDS011;64363;52.198;21.020;2023-02-18T04:35:12;13.25;;;3.40;;
75746;SDS011;64363;52.198;21.020;2023-02-18T04:37:38;24.25;;;3.33;;
75746;SDS011;64363;52.198;21.020;2023-02-18T04:40:04;14.13;;;2.97;;
75746;SDS011;64363;52.198;21.020;2023-02-18T04:42:30;15.13;;;3.00;;
75746;SDS011;64363;52.198;21.020;2023-02-18T04:44:56;11.93;;;3.55;;
75746;SDS011;64363;52.198;21.020;2023-02-18T04:47:22;9.38;;;4.55;;
75746;SDS011;64363;52.198;21.020;2023-02-18T04:49:47;14.02;;;2.47;;
75746;SDS011;64363;52.198;21.020;2023-02-18T04:52:13;17.42;;;3.40;;
75746;SDS011;64363;52.198;21.020;2023-02-18T04:54:39;23.17;;;4.88;;
75746;SDS011;64363;52.198;21.020;2023-02-18T04:57:05;19.88;;;3.28;;
75746;SDS011;64363;52.198;21.020;2023-02-18T04:59:30;16.55;;;2.53;;
75746;SDS011;64363;52.198;21.020;2023-02-18T05:01:56;19.98;;;2.65;;
75746;SDS011;64363;52.198;21.020;2023-02-18T05:04:22;18.00;;;2.83;;
75746;SDS011;64363;52.198;21.020;2023-02-18T05:06:48;6.05;;;2.10;;
75746;SDS011;64363;52.198;21.020;2023-02-18T05:09:13;14.95;;;3.08;;
75746;SDS011;64363;52.198;21.020;2023-02-18T05:11:40;15.10;;;3.80;;
75746;SDS011;64363;52.198;21.020;2023-02-18T05:14:06;15.00;;;2.78;;
75746;SDS011;64363;52.198;21.020;2023-02-18T05:16:32;9.23;;;2.38;;
75746;SDS011;64363;52.198;21.020;2023-02-18T05:18:57;13.80;;;2.25;;
75746;SDS011;64363;52.198;21.020;2023-02-18T05:21:24;14.77;;;3.42;;
75746;SDS011;64363;52.198;21.020;2023-02-18T05:23:49;12.50;;;2.60;;
75746;SDS011;64363;52.198;21.020;2023-02-18T05:26:15;11.77;;;2.35;;
75746;SDS011;64363;52.198;21.020;2023-02-18T05:28:42;12.38;;;2.22;;
75746;SDS011;64363;52.198;21.020;2023-02-18T05:31:07;11.65;;;2.28;;
75746;SDS011;64363;52.198;21.020;2023-02-18T05:33:33;10.20;;;3.45;;
75746;SDS011;64363;52.198;21.020;2023-02-18T05:35:59;13.98;;;2.78;;
75746;SDS011;64363;52.198;21.020;2023-02-18T05:38:25;13.73;;;2.85;;
75746;SDS011;64363;52.198;21.020;2023-02-18T05:40:51;12.55;;;3.58;;
75746;SDS011;64363;52.198;21.020;2023-02-18T05:43:16;14.15;;;2.75;;
75746;SDS011;64363;52.198;21.020;2023-02-18T05:45:42;10.13;;;2.60;;
75746;SDS011;64363;52.198;21.020;2023-02-18T05:48:08;13.60;;;3.13;;
75746;SDS011;64363;52.198;21.020;2023-02-18T05:50:34;9.50;;;2.60;;
75746;SDS011;64363;52.198;21.020;2023-02-18T05:53:00;12.93;;;2.72;;
75746;SDS011;64363;52.198;21.020;2023-02-18T05:55:25;10.27;;;2.63;;
75746;SDS011;64363;52.198;21.020;2023-02-18T05:57:51;12.10;;;2.47;;
75746;SDS011;64363;52.198;21.020;2023-02-18T06:00:17;14.02;;;2.75;;
75746;SDS011;64363;52.198;21.020;2023-02-18T06:02:43;8.82;;;2.33;;
75746;SDS011;64363;52.198;21.020;2023-02-18T06:05:10;14.45;;;2.70;;
75746;SDS011;64363;52.198;21.020;2023-02-18T06:07:36;8.80;;;2.28;;
75746;SDS011;64363;52.198;21.020;2023-02-18T06:10:02;14.48;;;3.03;;
75746;SDS011;64363;52.198;21.020;2023-02-18T06:12:28;14.27;;;3.70;;
75746;SDS011;64363;52.198;21.020;2023-02-18T06:14:54;9.73;;;3.15;;
75746;SDS011;64363;52.198;21.020;2023-02-18T06:17:20;14.40;;;4.55;;
75746;SDS011;64363;52.198;21.020;2023-02-18T06:19:47;12.20;;;2.85;;
75746;SDS011;64363;52.198;21.020;2023-02-18T06:22:13;12.73;;;3.50;;
75746;SDS011;64363;52.198;21.020;2023-02-18T06:24:39;11.60;;;2.42;;
75746;SDS011;64363;52.198;21.020;2023-02-18T06:27:05;9.98;;;2.30;;
75746;SDS011;64363;52.198;21.020;2023-02-18T06:29:31;12.18;;;3.08;;
75746;SDS011;64363;52.198;21.020;2023-02-18T06:31:57;12.38;;;2.80;;
75746;SDS011;64363;52.198;21.020;2023-02-18T06:34:25;10.60;;;2.25;;
75746;SDS011;64363;52.198;21.020;2023-02-18T06:36:51;10.10;;;2.53;;
75746;SDS011;64363;52.198;21.020;2023-02-18T06:39:17;16.83;;;3.58;;
75746;SDS011;64363;52.198;21.020;2023-02-18T06:41:42;18.67;;;3.60;;
75746;SDS011;64363;52.198;21.020;2023-02-18T06:44:08;15.32;;;2.78;;
75746;SDS011;64363;52.198;21.020;2023-02-18T06:46:35;13.15;;;2.58;;
75746;SDS011;64363;52.198;21.020;2023-02-18T06:49:02;15.65;;;2.78;;
75746;SDS011;64363;52.198;21.020;2023-02-18T06:51:28;18.33;;;3.40;;
75746;SDS011;64363;52.198;21.020;2023-02-18T06:53:54;17.83;;;2.92;;
75746;SDS011;64363;52.198;21.020;2023-02-18T06:56:19;12.63;;;3.50;;
75746;SDS011;64363;52.198;21.020;2023-02-18T06:58:45;15.52;;;2.42;;
75746;SDS011;64363;52.198;21.020;2023-02-18T07:01:11;17.40;;;3.70;;
75746;SDS011;64363;52.198;21.020;2023-02-18T07:03:37;15.32;;;3.15;;
75746;SDS011;64363;52.198;21.020;2023-02-18T07:06:02;15.13;;;3.17;;
75746;SDS011;64363;52.198;21.020;2023-02-18T07:08:28;15.05;;;3.03;;
75746;SDS011;64363;52.198;21.020;2023-02-18T07:10:55;11.93;;;3.15;;
75746;SDS011;64363;52.198;21.020;2023-02-18T07:13:21;19.52;;;3.35;;
75746;SDS011;64363;52.198;21.020;2023-02-18T07:15:47;11.60;;;2.53;;
75746;SDS011;64363;52.198;21.020;2023-02-18T07:18:12;11.88;;;2.80;;
75746;SDS011;64363;52.198;21.020;2023-02-18T07:20:38;15.60;;;3.10;;
75746;SDS011;64363;52.198;21.020;2023-02-18T07:23:04;15.05;;;2.38;;
75746;SDS011;64363;52.198;21.020;2023-02-18T07:25:30;15.60;;;3.25;;
75746;SDS011;64363;52.198;21.020;2023-02-18T07:27:56;10.70;;;2.00;;
75746;SDS011;64363;52.198;21.020;2023-02-18T07:30:21;17.77;;;2.97;;
75746;SDS011;64363;52.198;21.020;2023-02-18T07:32:47;21.33;;;3.65;;
75746;SDS011;64363;52.198;21.020;2023-02-18T07:35:14;16.08;;;3.15;;
75746;SDS011;64363;52.198;21.020;2023-02-18T07:37:44;19.55;;;3.25;;
75746;SDS011;64363;52.198;21.020;2023-02-18T07:40:14;14.57;;;2.70;;
75746;SDS011;64363;52.198;21.020;2023-02-18T07:42:41;24.00;;;4.00;;
75746;SDS011;64363;52.198;21.020;2023-02-18T07:45:07;11.93;;;3.17;;
75746;SDS011;64363;52.198;21.020;2023-02-18T07:47:34;20.20;;;4.22;;
75746;SDS011;64363;52.198;21.020;2023-02-18T07:49:59;11.23;;;3.53;;
75746;SDS011;64363;52.198;21.020;2023-02-18T07:52:25;11.50;;;2.70;;
75746;SDS011;64363;52.198;21.020;2023-02-18T07:54:51;18.15;;;3.65;;
75746;SDS011;64363;52.198;21.020;2023-02-18T07:57:16;12.77;;;3.75;;
75746;SDS011;64363;52.198;21.020;2023-02-18T07:59:42;15.82;;;3.55;;
75746;SDS011;64363;52.198;21.020;2023-02-18T08:02:12;9.88;;;3.33;;
75746;SDS011;64363;52.198;21.020;2023-02-18T08:04:42;26.20;;;3.65;;
75746;SDS011;64363;52.198;21.020;2023-02-18T08:07:10;16.90;;;2.30;;
75746;SDS011;64363;52.198;21.020;2023-02-18T08:09:37;12.23;;;3.55;;
75746;SDS011;64363;52.198;21.020;2023-02-18T08:12:03;14.10;;;3.60;;
75746;SDS011;64363;52.198;21.020;2023-02-18T08:14:29;11.82;;;3.35;;
75746;SDS011;64363;52.198;21.020;2023-02-18T08:16:54;21.65;;;3.90;;
75746;SDS011;64363;52.198;21.020;2023-02-18T08:19:20;16.63;;;3.75;;
75746;SDS011;64363;52.198;21.020;2023-02-18T08:21:46;19.60;;;5.45;;
75746;SDS011;64363;52.198;21.020;2023-02-18T08:24:12;13.05;;;2.90;;
75746;SDS011;64363;52.198;21.020;2023-02-18T08:26:38;22.33;;;3.70;;
75746;SDS011;64363;52.198;21.020;2023-02-18T08:29:03;23.30;;;3.08;;
75746;SDS011;64363;52.198;21.020;2023-02-18T08:31:29;14.50;;;3.50;;
75746;SDS011;64363;52.198;21.020;2023-02-18T08:33:56;13.18;;;3.08;;
75746;SDS011;64363;52.198;21.020;2023-02-18T08:36:24;13.55;;;4.28;;
75746;SDS011;64363;52.198;21.020;2023-02-18T08:38:49;13.80;;;2.70;;
75746;SDS011;64363;52.198;21.020;2023-02-18T08:41:15;11.82;;;3.15;;
75746;SDS011;64363;52.198;21.020;2023-02-18T08:43:43;13.38;;;3.33;;
75746;SDS011;64363;52.198;21.020;2023-02-18T08:46:10;15.68;;;3.50;;
75746;SDS011;64363;52.198;21.020;2023-02-18T08:48:36;16.20;;;3.75;;
75746;SDS011;64363;52.198;21.020;2023-02-18T08:51:11;12.23;;;3.05;;
75746;SDS011;64363;52.198;21.020;2023-02-18T08:53:37;23.75;;;3.15;;
75746;SDS011;64363;52.198;21.020;2023-02-18T08:56:09;14.85;;;3.42;;
75746;SDS011;64363;52.198;21.020;2023-02-18T08:58:36;17.92;;;3.17;;
75746;SDS011;64363;52.198;21.020;2023-02-18T09:01:03;15.18;;;3.63;;
75746;SDS011;64363;52.198;21.020;2023-02-18T09:03:31;10.95;;;2.67;;
75746;SDS011;64363;52.198;21.020;2023-02-18T09:05:57;22.52;;;3.25;;
75746;SDS011;64363;52.198;21.020;2023-02-18T09:08:23;16.95;;;4.00;;
75746;SDS011;64363;52.198;21.020;2023-02-18T09:10:53;10.57;;;3.63;;
75746;SDS011;64363;52.198;21.020;2023-02-18T09:13:19;17.85;;;4.03;;
75746;SDS011;64363;52.198;21.020;2023-02-18T09:15:45;12.23;;;2.65;;
75746;SDS011;64363;52.198;21.020;2023-02-18T09:18:19;17.67;;;3.85;;
75746;SDS011;64363;52.198;21.020;2023-02-18T09:20:45;18.63;;;4.32;;
75746;SDS011;64363;52.198;21.020;2023-02-18T09:23:10;17.33;;;3.30;;
75746;SDS011;64363;52.198;21.020;2023-02-18T09:25:38;22.42;;;4.78;;
75746;SDS011;64363;52.198;21.020;2023-02-18T09:28:04;15.52;;;3.55;;
75746;SDS011;64363;52.198;21.020;2023-02-18T09:30:30;16.63;;;3.28;;
75746;SDS011;64363;52.198;21.020;2023-02-18T09:32:55;22.90;;;4.30;;
75746;SDS011;64363;52.198;21.020;2023-02-18T09:35:21;19.15;;;3.22;;
75746;SDS011;64363;52.198;21.020;2023-02-18T09:37:47;17.65;;;2.83;;
75746;SDS011;64363;52.198;21.020;2023-02-18T09:40:26;15.50;;;2.90;;
75746;SDS011;64363;52.198;21.020;2023-02-18T09:42:55;12.70;;;3.60;;
75746;SDS011;64363;52.198;21.020;2023-02-18T09:45:22;20.60;;;3.85;;
75746;SDS011;64363;52.198;21.020;2023-02-18T09:47:48;16.65;;;4.03;;
75746;SDS011;64363;52.198;21.020;2023-02-18T09:52:50;19.48;;;3.83;;
75746;SDS011;64363;52.198;21.020;2023-02-18T09:55:21;14.15;;;3.20;;
75746;SDS011;64363;52.198;21.020;2023-02-18T09:58:03;10.68;;;2.40;;
75746;SDS011;64363;52.198;21.020;2023-02-18T10:00:38;15.90;;;3.53;;
75746;SDS011;64363;52.198;21.020;2023-02-18T10:06:05;17.05;;;4.40;;
75746;SDS011;64363;52.198;21.020;2023-02-18T10:08:36;15.70;;;4.10;;
75746;SDS011;64363;52.198;21.020;2023-02-18T10:11:09;20.67;;;3.35;;
75746;SDS011;64363;52.198;21.020;2023-02-18T10:13:40;16.48;;;2.92;;
75746;SDS011;64363;52.198;21.020;2023-02-18T10:16:08;13.40;;;3.13;;
75746;SDS011;64363;52.198;21.020;2023-02-18T10:18:40;17.98;;;3.88;;
75746;SDS011;64363;52.198;21.020;2023-02-18T10:21:13;13.35;;;2.33;;
75746;SDS011;64363;52.198;21.020;2023-02-18T10:23:46;12.55;;;3.67;;
75746;SDS011;64363;52.198;21.020;2023-02-18T10:26:19;15.48;;;3.33;;
75746;SDS011;64363;52.198;21.020;2023-02-18T10:28:45;16.60;;;3.33;;
75746;SDS011;64363;52.198;21.020;2023-02-18T10:31:17;11.02;;;2.97;;
75746;SDS011;64363;52.198;21.020;2023-02-18T10:36:36;14.15;;;3.22;;
75746;SDS011;64363;52.198;21.020;2023-02-18T10:39:10;15.02;;;3.42;;
75746;SDS011;64363;52.198;21.020;2023-02-18T10:42:22;15.77;;;3.75;;
75746;SDS011;64363;52.198;21.020;2023-02-18T10:50:24;10.52;;;2.80;;
75746;SDS011;64363;52.198;21.020;2023-02-18T10:52:51;17.60;;;3.53;;
75746;SDS011;64363;52.198;21.020;2023-02-18T10:57:58;19.15;;;3.30;;
75746;SDS011;64363;52.198;21.020;2023-02-18T11:00:24;11.73;;;3.58;;
75746;SDS011;64363;52.198;21.020;2023-02-18T11:05:53;16.58;;;3.40;;
75746;SDS011;64363;52.198;21.020;2023-02-18T11:08:21;16.48;;;3.45;;
75746;SDS011;64363;52.198;21.020;2023-02-18T11:10:52;18.67;;;4.03;;
75746;SDS011;64363;52.198;21.020;2023-02-18T11:13:23;14.13;;;3.53;;
75746;SDS011;64363;52.198;21.020;2023-02-18T11:16:04;17.30;;;4.10;;
75746;SDS011;64363;52.198;21.020;2023-02-18T11:23:49;18.13;;;4.20;;
75746;SDS011;64363;52.198;21.020;2023-02-18T11:26:18;24.15;;;5.03;;
75746;SDS011;64363;52.198;21.020;2023-02-18T11:28:51;22.33;;;3.78;;
75746;SDS011;64363;52.198;21.020;2023-02-18T11:31:23;15.18;;;3.53;;
75746;SDS011;64363;52.198;21.020;2023-02-18T11:33:55;18.05;;;4.32;;
75746;SDS011;64363;52.198;21.020;2023-02-18T11:38:56;17.63;;;3.38;;
75746;SDS011;64363;52.198;21.020;2023-02-18T11:44:05;11.57;;;3.97;;
75746;SDS011;64363;52.198;21.020;2023-02-18T11:46:54;15.27;;;3.90;;
75746;SDS011;64363;52.198;21.020;2023-02-18T11:49:21;13.38;;;4.40;;
75746;SDS011;64363;52.198;21.020;2023-02-18T11:51:48;15.80;;;4.00;;
75746;SDS011;64363;52.198;21.020;2023-02-18T11:54:26;14.88;;;3.83;;
75746;SDS011;64363;52.198;21.020;2023-02-18T11:56:55;20.13;;;4.40;;
75746;SDS011;64363;52.198;21.020;2023-02-18T11:59:24;15.40;;;4.63;;
75746;SDS011;64363;52.198;21.020;2023-02-18T12:01:53;23.75;;;4.22;;
75746;SDS011;64363;52.198;21.020;2023-02-18T12:04:32;13.98;;;4.10;;
75746;SDS011;64363;52.198;21.020;2023-02-18T12:07:10;17.75;;;4.25;;
75746;SDS011;64363;52.198;21.020;2023-02-18T12:09:48;21.10;;;4.10;;
75746;SDS011;64363;52.198;21.020;2023-02-18T12:15:00;24.75;;;4.40;;
75746;SDS011;64363;52.198;21.020;2023-02-18T12:17:37;14.38;;;3.55;;
75746;SDS011;64363;52.198;21.020;2023-02-18T12:23:38;19.13;;;4.38;;
75746;SDS011;64363;52.198;21.020;2023-02-18T12:26:28;10.50;;;3.10;;
75746;SDS011;64363;52.198;21.020;2023-02-18T12:32:35;16.13;;;4.15;;
75746;SDS011;64363;52.198;21.020;2023-02-18T12:46:38;17.40;;;4.43;;
75746;SDS011;64363;52.198;21.020;2023-02-18T12:55:18;11.10;;;3.58;;
75746;SDS011;64363;52.198;21.020;2023-02-18T12:57:54;20.20;;;3.65;;
75746;SDS011;64363;52.198;21.020;2023-02-18T13:00:42;17.80;;;4.45;;
75746;SDS011;64363;52.198;21.020;2023-02-18T13:03:26;14.70;;;4.32;;
75746;SDS011;64363;52.198;21.020;2023-02-18T13:06:24;20.27;;;4.25;;
75746;SDS011;64363;52.198;21.020;2023-02-18T13:12:20;18.17;;;4.30;;
75746;SDS011;64363;52.198;21.020;2023-02-18T13:15:26;16.30;;;3.78;;
75746;SDS011;64363;52.198;21.020;2023-02-18T13:17:59;16.05;;;4.40;;
75746;SDS011;64363;52.198;21.020;2023-02-18T13:23:17;14.68;;;2.97;;
75746;SDS011;64363;52.198;21.020;2023-02-18T13:25:47;15.45;;;3.75;;
75746;SDS011;64363;52.198;21.020;2023-02-18T13:34:07;17.73;;;4.28;;
75746;SDS011;64363;52.198;21.020;2023-02-18T13:39:05;13.60;;;3.95;;
75746;SDS011;64363;52.198;21.020;2023-02-18T13:41:40;20.02;;;4.13;;
75746;SDS011;64363;52.198;21.020;2023-02-18T13:45:21;16.45;;;4.43;;
75746;SDS011;64363;52.198;21.020;2023-02-18T13:46:56;16.13;;;3.83;;
75746;SDS011;64363;52.198;21.020;2023-02-18T13:49:30;17.67;;;4.70;;
75746;SDS011;64363;52.198;21.020;2023-02-18T13:51:57;16.50;;;4.82;;
75746;SDS011;64363;52.198;21.020;2023-02-18T13:59:57;17.60;;;3.72;;
75746;SDS011;64363;52.198;21.020;2023-02-18T14:04:55;11.13;;;3.53;;
75746;SDS011;64363;52.198;21.020;2023-02-18T14:07:36;19.13;;;5.20;;
75746;SDS011;64363;52.198;21.020;2023-02-18T14:17:47;20.00;;;4.32;;
75746;SDS011;64363;52.198;21.020;2023-02-18T14:22:49;22.23;;;5.50;;
75746;SDS011;64363;52.198;21.020;2023-02-18T14:27:45;22.27;;;4.63;;
75746;SDS011;64363;52.198;21.020;2023-02-18T14:30:17;13.73;;;3.50;;
75746;SDS011;64363;52.198;21.020;2023-02-18T14:32:52;15.52;;;4.93;;
75746;SDS011;64363;52.198;21.020;2023-02-18T14:44:03;13.02;;;3.90;;
75746;SDS011;64363;52.198;21.020;2023-02-18T14:49:42;11.93;;;3.53;;
75746;SDS011;64363;52.198;21.020;2023-02-18T14:52:16;16.00;;;5.03;;
75746;SDS011;64363;52.198;21.020;2023-02-18T14:54:51;14.85;;;4.55;;
75746;SDS011;64363;52.198;21.020;2023-02-18T14:57:17;12.38;;;5.93;;
75746;SDS011;64363;52.198;21.020;2023-02-18T14:59:56;10.13;;;5.03;;
75746;SDS011;64363;52.198;21.020;2023-02-18T15:02:24;14.23;;;5.18;;
75746;SDS011;64363;52.198;21.020;2023-02-18T15:04:55;13.55;;;4.68;;
75746;SDS011;64363;52.198;21.020;2023-02-18T15:07:37;9.82;;;4.00;;
75746;SDS011;64363;52.198;21.020;2023-02-18T15:10:02;12.18;;;3.38;;
75746;SDS011;64363;52.198;21.020;2023-02-18T15:12:28;17.13;;;3.92;;
75746;SDS011;64363;52.198;21.020;2023-02-18T15:14:54;10.30;;;3.05;;
75746;SDS011;64363;52.198;21.020;2023-02-18T15:17:27;11.32;;;2.78;;
75746;SDS011;64363;52.198;21.020;2023-02-18T15:19:54;13.45;;;3.63;;
75746;SDS011;64363;52.198;21.020;2023-02-18T15:22:23;9.02;;;3.78;;
75746;SDS011;64363;52.198;21.020;2023-02-18T15:24:51;10.50;;;3.45;;
75746;SDS011;64363;52.198;21.020;2023-02-18T15:27:20;14.32;;;4.10;;
75746;SDS011;64363;52.198;21.020;2023-02-18T15:29:56;9.45;;;3.40;;
75746;SDS011;64363;52.198;21.020;2023-02-18T15:32:24;10.43;;;3.50;;
75746;SDS011;64363;52.198;21.020;2023-02-18T15:34:58;11.15;;;2.70;;
75746;SDS011;64363;52.198;21.020;2023-02-18T15:37:28;10.48;;;2.85;;
75746;SDS011;64363;52.198;21.020;2023-02-18T15:39:55;15.35;;;2.53;;
75746;SDS011;64363;52.198;21.020;2023-02-18T15:44:56;7.25;;;1.83;;
75746;SDS011;64363;52.198;21.020;2023-02-18T15:47:27;8.48;;;2.40;;
75746;SDS011;64363;52.198;21.020;2023-02-18T15:49:55;5.40;;;1.63;;
75746;SDS011;64363;52.198;21.020;2023-02-18T15:52:24;8.60;;;1.98;;
75746;SDS011;64363;52.198;21.020;2023-02-18T15:54:52;10.85;;;2.38;;
75746;SDS011;64363;52.198;21.020;2023-02-18T15:57:19;7.88;;;3.15;;
75746;SDS011;64363;52.198;21.020;2023-02-18T15:59:55;6.10;;;2.63;;
75746;SDS011;64363;52.198;21.020;2023-02-18T16:02:29;7.20;;;2.95;;
75746;SDS011;64363;52.198;21.020;2023-02-18T16:04:58;12.20;;;2.90;;
75746;SDS011;64363;52.198;21.020;2023-02-18T16:07:29;10.77;;;3.25;;
75746;SDS011;64363;52.198;21.020;2023-02-18T16:13:14;10.88;;;4.35;;
75746;SDS011;64363;52.198;21.020;2023-02-18T16:15:43;14.38;;;4.18;;
75746;SDS011;64363;52.198;21.020;2023-02-18T16:18:56;14.07;;;4.22;;
75746;SDS011;64363;52.198;21.020;2023-02-18T16:21:03;16.15;;;4.03;;
75746;SDS011;64363;52.198;21.020;2023-02-18T16:23:44;12.68;;;4.05;;
75746;SDS011;64363;52.198;21.020;2023-02-18T16:26:28;19.95;;;4.70;;
75746;SDS011;64363;52.198;21.020;2023-02-18T16:28:58;11.95;;;3.90;;
75746;SDS011;64363;52.198;21.020;2023-02-18T16:31:29;12.90;;;4.15;;
75746;SDS011;64363;52.198;21.020;2023-02-18T16:33:55;14.32;;;4.47;;
75746;SDS011;64363;52.198;21.020;2023-02-18T16:36:20;21.38;;;4.63;;
75746;SDS011;64363;52.198;21.020;2023-02-18T16:38:49;14.27;;;4.53;;
75746;SDS011;64363;52.198;21.020;2023-02-18T16:41:15;16.17;;;5.13;;
75746;SDS011;64363;52.198;21.020;2023-02-18T16:43:41;12.32;;;4.15;;
75746;SDS011;64363;52.198;21.020;2023-02-18T16:46:16;12.60;;;4.03;;
75746;SDS011;64363;52.198;21.020;2023-02-18T16:48:51;18.35;;;4.15;;
75746;SDS011;64363;52.198;21.020;2023-02-18T16:51:21;12.60;;;3.80;;
75746;SDS011;64363;52.198;21.020;2023-02-18T16:53:54;14.57;;;4.55;;
75746;SDS011;64363;52.198;21.020;2023-02-18T16:56:21;12.85;;;4.40;;
75746;SDS011;64363;52.198;21.020;2023-02-18T16:58:49;12.32;;;3.95;;
75746;SDS011;64363;52.198;21.020;2023-02-18T17:01:37;12.77;;;4.60;;